sensor_id;sensor_type;location;lat;lon;timestamp;temperature;humidity
34572;DHT22;20808;48.974;8.452;2022-12-26T00:00:11;7.70;99.90
34572;DHT22;20808;48.974;8.452;2022-12-26T00:00:30;7.70;99.90
34572;DHT22;20808;48.974;8.452;2022-12-26T00:00:46;7.70;99.90
34572;DHT22;20808;48.974;8.452;2022-12-26T00:01:06;7.70;99.90
34572;DHT22;20808;48.974;8.452;2022-12-26T00:01:25;7.70;99.90
34572;DHT22;20808;48.974;8.452;2022-12-26T00:01:43;7.70;99.90
34572;DHT22;20808;48.974;8.452;2022-12-26T00:02:00;7.70;99.90
34572;DHT22;20808;48.974;8.452;2022-12-26T00:02:16;7.70;99.90
34572;DHT22;20808;48.974;8.452;2022-12-26T00:02:31;7.80;99.90
34572;DHT22;20808;48.974;8.452;2022-12-26T00:02:47;7.80;99.90
34572;DHT22;20808;48.974;8.452;2022-12-26T00:03:03;7.80;99.90
34572;DHT22;20808;48.974;8.452;2022-12-26T00:03:19;7.80;99.90
34572;DHT22;20808;48.974;8.452;2022-12-26T00:03:35;7.80;99.90
34572;DHT22;20808;48.974;8.452;2022-12-26T00:03:52;7.80;99.90
34572;DHT22;20808;48.974;8.452;2022-12-26T00:04:08;7.80;99.90
34572;DHT22;20808;48.974;8.452;2022-12-26T00:04:24;7.80;99.90
34572;DHT22;20808;48.974;8.452;2022-12-26T00:04:39;7.90;99.90
34572;DHT22;20808;48.974;8.452;2022-12-26T00:04:56;7.90;99.90
34572;DHT22;20808;48.974;8.452;2022-12-26T00:05:12;7.90;99.90
34572;DHT22;20808;48.974;8.452;2022-12-26T00:05:28;7.90;99.90
34572;DHT22;20808;48.974;8.452;2022-12-26T00:05:44;8.00;99.90
34572;DHT22;20808;48.974;8.452;2022-12-26T00:05:59;8.00;99.90
34572;DHT22;20808;48.974;8.452;2022-12-26T00:06:17;8.00;99.90
34572;DHT22;20808;48.974;8.452;2022-12-26T00:06:33;8.00;99.90
34572;DHT22;20808;48.974;8.452;2022-12-26T00:06:49;8.00;99.90
34572;DHT22;20808;48.974;8.452;2022-12-26T00:07:06;7.90;99.90
34572;DHT22;20808;48.974;8.452;2022-12-26T00:07:22;7.90;99.90
34572;DHT22;20808;48.974;8.452;2022-12-26T00:07:38;7.90;99.90
34572;DHT22;20808;48.974;8.452;2022-12-26T00:07:53;7.90;99.90
34572;DHT22;20808;48.974;8.452;2022-12-26T00:08:09;7.90;99.90
34572;DHT22;20808;48.974;8.452;2022-12-26T00:08:25;7.90;99.90
34572;DHT22;20808;48.974;8.452;2022-12-26T00:08:42;7.90;99.90
34572;DHT22;20808;48.974;8.452;2022-12-26T00:09:01;7.90;99.90
34572;DHT22;20808;48.974;8.452;2022-12-26T00:09:17;7.90;99.90
34572;DHT22;20808;48.974;8.452;2022-12-26T00:09:33;7.90;99.90
34572;DHT22;20808;48.974;8.452;2022-12-26T00:09:49;7.90;99.90
34572;DHT22;20808;48.974;8.452;2022-12-26T00:10:06;7.90;99.90
34572;DHT22;20808;48.974;8.452;2022-12-26T00:10:23;7.90;99.90
34572;DHT22;20808;48.974;8.452;2022-12-26T00:10:38;7.90;99.90
34572;DHT22;20808;48.974;8.452;2022-12-26T00:10:54;7.80;99.90
34572;DHT22;20808;48.974;8.452;2022-12-26T00:11:11;7.80;99.90
34572;DHT22;20808;48.974;8.452;2022-12-26T00:11:27;7.80;99.90
34572;DHT22;20808;48.974;8.452;2022-12-26T00:11:43;7.80;99.90
34572;DHT22;20808;48.974;8.452;2022-12-26T00:12:00;7.90;99.90
34572;DHT22;20808;48.974;8.452;2022-12-26T00:12:15;7.90;99.90
34572;DHT22;20808;48.974;8.452;2022-12-26T00:12:31;7.90;99.90
34572;DHT22;20808;48.974;8.452;2022-12-26T00:12:47;7.90;99.90
34572;DHT22;20808;48.974;8.452;2022-12-26T00:13:03;7.80;99.90
34572;DHT22;20808;48.974;8.452;2022-12-26T00:13:20;7.90;99.90
34572;DHT22;20808;48.974;8.452;2022-12-26T00:13:36;7.90;99.90
34572;DHT22;20808;48.974;8.452;2022-12-26T00:13:56;7.90;99.90
34572;DHT22;20808;48.974;8.452;2022-12-26T00:14:13;7.90;99.90
34572;DHT22;20808;48.974;8.452;2022-12-26T00:14:29;8.00;99.90
34572;DHT22;20808;48.974;8.452;2022-12-26T00:14:46;8.00;99.90
34572;DHT22;20808;48.974;8.452;2022-12-26T00:15:03;8.00;99.90
34572;DHT22;20808;48.974;8.452;2022-12-26T00:15:19;8.00;99.90
34572;DHT22;20808;48.974;8.452;2022-12-26T00:15:38;8.10;99.90
34572;DHT22;20808;48.974;8.452;2022-12-26T00:15:54;8.10;99.90
34572;DHT22;20808;48.974;8.452;2022-12-26T00:16:11;8.10;99.90
34572;DHT22;20808;48.974;8.452;2022-12-26T00:16:28;8.10;99.90
34572;DHT22;20808;48.974;8.452;2022-12-26T00:16:44;8.10;99.90
34572;DHT22;20808;48.974;8.452;2022-12-26T00:17:00;8.10;99.90
34572;DHT22;20808;48.974;8.452;2022-12-26T00:17:16;8.20;99.90
34572;DHT22;20808;48.974;8.452;2022-12-26T00:17:33;8.20;99.90
34572;DHT22;20808;48.974;8.452;2022-12-26T00:17:49;8.20;99.90
34572;DHT22;20808;48.974;8.452;2022-12-26T00:18:05;8.20;99.90
34572;DHT22;20808;48.974;8.452;2022-12-26T00:18:20;8.20;99.90
34572;DHT22;20808;48.974;8.452;2022-12-26T00:18:36;8.20;99.90
34572;DHT22;20808;48.974;8.452;2022-12-26T00:18:52;8.20;99.90
34572;DHT22;20808;48.974;8.452;2022-12-26T00:19:08;8.30;99.90
34572;DHT22;20808;48.974;8.452;2022-12-26T00:19:25;8.30;99.90
34572;DHT22;20808;48.974;8.452;2022-12-26T00:19:41;8.30;99.90
34572;DHT22;20808;48.974;8.452;2022-12-26T00:19:57;8.30;99.90
34572;DHT22;20808;48.974;8.452;2022-12-26T00:20:13;8.30;99.90
34572;DHT22;20808;48.974;8.452;2022-12-26T00:20:29;8.30;99.90
34572;DHT22;20808;48.974;8.452;2022-12-26T00:20:45;8.30;99.90
34572;DHT22;20808;48.974;8.452;2022-12-26T00:21:01;8.30;99.90
34572;DHT22;20808;48.974;8.452;2022-12-26T00:21:18;8.30;99.90
34572;DHT22;20808;48.974;8.452;2022-12-26T00:21:34;8.30;99.90
34572;DHT22;20808;48.974;8.452;2022-12-26T00:21:50;8.30;99.90
34572;DHT22;20808;48.974;8.452;2022-12-26T00:22:06;8.30;99.90
34572;DHT22;20808;48.974;8.452;2022-12-26T00:22:23;8.30;99.90
34572;DHT22;20808;48.974;8.452;2022-12-26T00:22:38;8.30;99.90
34572;DHT22;20808;48.974;8.452;2022-12-26T00:22:54;8.30;99.90
34572;DHT22;20808;48.974;8.452;2022-12-26T00:23:10;8.30;99.90
34572;DHT22;20808;48.974;8.452;2022-12-26T00:23:26;8.30;99.90
34572;DHT22;20808;48.974;8.452;2022-12-26T00:23:43;8.20;99.90
34572;DHT22;20808;48.974;8.452;2022-12-26T00:24:01;8.30;99.90
34572;DHT22;20808;48.974;8.452;2022-12-26T00:24:17;8.30;99.90
34572;DHT22;20808;48.974;8.452;2022-12-26T00:24:32;8.30;99.90
34572;DHT22;20808;48.974;8.452;2022-12-26T00:24:48;8.30;99.90
34572;DHT22;20808;48.974;8.452;2022-12-26T00:25:06;8.30;99.90
34572;DHT22;20808;48.974;8.452;2022-12-26T00:25:22;8.30;99.90
34572;DHT22;20808;48.974;8.452;2022-12-26T00:25:38;8.30;99.90
34572;DHT22;20808;48.974;8.452;2022-12-26T00:25:53;8.30;99.90
34572;DHT22;20808;48.974;8.452;2022-12-26T00:26:10;8.30;99.90
34572;DHT22;20808;48.974;8.452;2022-12-26T00:26:28;8.30;99.90
34572;DHT22;20808;48.974;8.452;2022-12-26T00:26:44;8.30;99.90
34572;DHT22;20808;48.974;8.452;2022-12-26T00:27:01;8.30;99.90
34572;DHT22;20808;48.974;8.452;2022-12-26T00:27:17;8.30;99.90
34572;DHT22;20808;48.974;8.452;2022-12-26T00:27:33;8.30;99.90
34572;DHT22;20808;48.974;8.452;2022-12-26T00:27:48;8.30;99.90
34572;DHT22;20808;48.974;8.452;2022-12-26T00:28:04;8.30;99.90
34572;DHT22;20808;48.974;8.452;2022-12-26T00:28:20;8.30;99.90
34572;DHT22;20808;48.974;8.452;2022-12-26T00:28:36;8.30;99.90
34572;DHT22;20808;48.974;8.452;2022-12-26T00:28:53;8.30;99.90
34572;DHT22;20808;48.974;8.452;2022-12-26T00:29:09;8.30;99.90
34572;DHT22;20808;48.974;8.452;2022-12-26T00:29:25;8.30;99.90
34572;DHT22;20808;48.974;8.452;2022-12-26T00:29:41;8.30;99.90
34572;DHT22;20808;48.974;8.452;2022-12-26T00:29:58;8.30;99.90
34572;DHT22;20808;48.974;8.452;2022-12-26T00:30:14;8.30;99.90
34572;DHT22;20808;48.974;8.452;2022-12-26T00:30:29;8.30;99.90
34572;DHT22;20808;48.974;8.452;2022-12-26T00:30:45;8.30;99.90
34572;DHT22;20808;48.974;8.452;2022-12-26T00:31:03;8.30;99.90
34572;DHT22;20808;48.974;8.452;2022-12-26T00:31:21;8.40;99.90
34572;DHT22;20808;48.974;8.452;2022-12-26T00:31:38;8.30;99.90
34572;DHT22;20808;48.974;8.452;2022-12-26T00:31:54;8.40;99.90
34572;DHT22;20808;48.974;8.452;2022-12-26T00:32:10;8.40;99.90
34572;DHT22;20808;48.974;8.452;2022-12-26T00:32:25;8.40;99.90
34572;DHT22;20808;48.974;8.452;2022-12-26T00:32:41;8.40;99.90
34572;DHT22;20808;48.974;8.452;2022-12-26T00:32:57;8.40;99.90
34572;DHT22;20808;48.974;8.452;2022-12-26T00:33:14;8.40;99.90
34572;DHT22;20808;48.974;8.452;2022-12-26T00:33:30;8.40;99.90
34572;DHT22;20808;48.974;8.452;2022-12-26T00:33:46;8.50;99.90
34572;DHT22;20808;48.974;8.452;2022-12-26T00:34:02;8.50;99.90
34572;DHT22;20808;48.974;8.452;2022-12-26T00:34:18;8.50;99.90
34572;DHT22;20808;48.974;8.452;2022-12-26T00:34:33;8.60;99.90
34572;DHT22;20808;48.974;8.452;2022-12-26T00:34:50;8.60;99.90
34572;DHT22;20808;48.974;8.452;2022-12-26T00:35:07;8.60;99.90
34572;DHT22;20808;48.974;8.452;2022-12-26T00:35:23;8.60;99.90
34572;DHT22;20808;48.974;8.452;2022-12-26T00:35:38;8.60;99.90
34572;DHT22;20808;48.974;8.452;2022-12-26T00:36:00;8.60;99.90
34572;DHT22;20808;48.974;8.452;2022-12-26T00:36:18;8.60;99.90
34572;DHT22;20808;48.974;8.452;2022-12-26T00:36:35;8.70;99.90
34572;DHT22;20808;48.974;8.452;2022-12-26T00:36:51;8.70;99.90
34572;DHT22;20808;48.974;8.452;2022-12-26T00:37:06;8.70;99.90
34572;DHT22;20808;48.974;8.452;2022-12-26T00:37:22;8.70;99.90
34572;DHT22;20808;48.974;8.452;2022-12-26T00:37:38;8.70;99.90
34572;DHT22;20808;48.974;8.452;2022-12-26T00:37:54;8.70;99.90
34572;DHT22;20808;48.974;8.452;2022-12-26T00:38:11;8.70;99.90
34572;DHT22;20808;48.974;8.452;2022-12-26T00:38:26;8.70;99.90
34572;DHT22;20808;48.974;8.452;2022-12-26T00:38:44;8.70;99.90
34572;DHT22;20808;48.974;8.452;2022-12-26T00:39:01;8.70;99.90
34572;DHT22;20808;48.974;8.452;2022-12-26T00:39:18;8.80;99.90
34572;DHT22;20808;48.974;8.452;2022-12-26T00:39:34;8.70;99.90
34572;DHT22;20808;48.974;8.452;2022-12-26T00:39:50;8.70;99.90
34572;DHT22;20808;48.974;8.452;2022-12-26T00:40:07;8.80;99.90
34572;DHT22;20808;48.974;8.452;2022-12-26T00:40:23;8.80;99.90
34572;DHT22;20808;48.974;8.452;2022-12-26T00:40:39;8.80;99.90
34572;DHT22;20808;48.974;8.452;2022-12-26T00:40:57;8.80;99.90
34572;DHT22;20808;48.974;8.452;2022-12-26T00:41:14;8.80;99.90
34572;DHT22;20808;48.974;8.452;2022-12-26T00:41:31;8.80;99.90
34572;DHT22;20808;48.974;8.452;2022-12-26T00:41:47;8.70;99.90
34572;DHT22;20808;48.974;8.452;2022-12-26T00:42:03;8.70;99.90
34572;DHT22;20808;48.974;8.452;2022-12-26T00:42:19;8.80;99.90
34572;DHT22;20808;48.974;8.452;2022-12-26T00:42:34;8.80;99.90
34572;DHT22;20808;48.974;8.452;2022-12-26T00:42:50;8.90;99.90
34572;DHT22;20808;48.974;8.452;2022-12-26T00:43:07;8.90;99.90
34572;DHT22;20808;48.974;8.452;2022-12-26T00:43:23;8.90;99.90
34572;DHT22;20808;48.974;8.452;2022-12-26T00:43:38;8.90;99.90
34572;DHT22;20808;48.974;8.452;2022-12-26T00:43:55;8.90;99.90
34572;DHT22;20808;48.974;8.452;2022-12-26T00:44:11;8.90;99.90
34572;DHT22;20808;48.974;8.452;2022-12-26T00:44:27;8.90;99.90
34572;DHT22;20808;48.974;8.452;2022-12-26T00:44:43;8.90;99.90
34572;DHT22;20808;48.974;8.452;2022-12-26T00:44:59;8.90;99.90
34572;DHT22;20808;48.974;8.452;2022-12-26T00:45:15;8.90;99.90
34572;DHT22;20808;48.974;8.452;2022-12-26T00:45:31;8.90;99.90
34572;DHT22;20808;48.974;8.452;2022-12-26T00:45:47;8.90;99.90
34572;DHT22;20808;48.974;8.452;2022-12-26T00:46:03;8.90;99.90
34572;DHT22;20808;48.974;8.452;2022-12-26T00:46:20;8.90;99.90
34572;DHT22;20808;48.974;8.452;2022-12-26T00:46:36;8.90;99.90
34572;DHT22;20808;48.974;8.452;2022-12-26T00:46:51;8.90;99.90
34572;DHT22;20808;48.974;8.452;2022-12-26T00:47:07;8.90;99.90
34572;DHT22;20808;48.974;8.452;2022-12-26T00:47:24;8.90;99.90
34572;DHT22;20808;48.974;8.452;2022-12-26T00:47:40;8.80;99.90
34572;DHT22;20808;48.974;8.452;2022-12-26T00:47:56;8.80;99.90
34572;DHT22;20808;48.974;8.452;2022-12-26T00:48:11;8.90;99.90
34572;DHT22;20808;48.974;8.452;2022-12-26T00:48:27;8.80;99.90
34572;DHT22;20808;48.974;8.452;2022-12-26T00:48:43;8.80;99.90
34572;DHT22;20808;48.974;8.452;2022-12-26T00:48:59;8.80;99.90
34572;DHT22;20808;48.974;8.452;2022-12-26T00:49:16;8.80;99.90
34572;DHT22;20808;48.974;8.452;2022-12-26T00:49:32;8.80;99.90
34572;DHT22;20808;48.974;8.452;2022-12-26T00:49:48;8.80;99.90
34572;DHT22;20808;48.974;8.452;2022-12-26T00:50:04;8.80;99.90
34572;DHT22;20808;48.974;8.452;2022-12-26T00:50:20;8.80;99.90
34572;DHT22;20808;48.974;8.452;2022-12-26T00:50:36;8.80;99.90
34572;DHT22;20808;48.974;8.452;2022-12-26T00:50:52;8.70;99.90
34572;DHT22;20808;48.974;8.452;2022-12-26T00:51:08;8.70;99.90
34572;DHT22;20808;48.974;8.452;2022-12-26T00:51:25;8.70;99.90
34572;DHT22;20808;48.974;8.452;2022-12-26T00:51:41;8.70;99.90
34572;DHT22;20808;48.974;8.452;2022-12-26T00:51:56;8.70;99.90
34572;DHT22;20808;48.974;8.452;2022-12-26T00:52:12;8.70;99.90
34572;DHT22;20808;48.974;8.452;2022-12-26T00:52:28;8.70;99.90
34572;DHT22;20808;48.974;8.452;2022-12-26T00:52:45;8.80;99.90
34572;DHT22;20808;48.974;8.452;2022-12-26T00:53:01;8.80;99.90
34572;DHT22;20808;48.974;8.452;2022-12-26T00:53:16;8.90;99.90
34572;DHT22;20808;48.974;8.452;2022-12-26T00:53:33;8.90;99.90
34572;DHT22;20808;48.974;8.452;2022-12-26T00:53:50;9.00;99.90
34572;DHT22;20808;48.974;8.452;2022-12-26T00:54:07;9.00;99.90
34572;DHT22;20808;48.974;8.452;2022-12-26T00:54:22;9.00;99.90
34572;DHT22;20808;48.974;8.452;2022-12-26T00:54:38;9.10;99.90
34572;DHT22;20808;48.974;8.452;2022-12-26T00:54:54;9.00;99.90
34572;DHT22;20808;48.974;8.452;2022-12-26T00:55:10;9.10;99.90
34572;DHT22;20808;48.974;8.452;2022-12-26T00:55:26;9.10;99.90
34572;DHT22;20808;48.974;8.452;2022-12-26T00:55:41;9.20;99.90
34572;DHT22;20808;48.974;8.452;2022-12-26T00:55:59;9.20;99.90
34572;DHT22;20808;48.974;8.452;2022-12-26T00:56:14;9.20;99.90
34572;DHT22;20808;48.974;8.452;2022-12-26T00:56:30;9.10;99.90
34572;DHT22;20808;48.974;8.452;2022-12-26T00:56:46;9.20;99.90
34572;DHT22;20808;48.974;8.452;2022-12-26T00:57:03;9.20;99.90
34572;DHT22;20808;48.974;8.452;2022-12-26T00:57:19;9.20;99.90
34572;DHT22;20808;48.974;8.452;2022-12-26T00:57:34;9.20;99.90
34572;DHT22;20808;48.974;8.452;2022-12-26T00:57:50;9.30;99.90
34572;DHT22;20808;48.974;8.452;2022-12-26T00:58:06;9.30;99.90
34572;DHT22;20808;48.974;8.452;2022-12-26T00:58:23;9.30;99.90
34572;DHT22;20808;48.974;8.452;2022-12-26T00:58:38;9.40;99.90
34572;DHT22;20808;48.974;8.452;2022-12-26T00:58:56;9.40;99.90
34572;DHT22;20808;48.974;8.452;2022-12-26T00:59:12;9.50;99.90
34572;DHT22;20808;48.974;8.452;2022-12-26T00:59:28;9.50;99.90
34572;DHT22;20808;48.974;8.452;2022-12-26T00:59:43;9.50;99.90
34572;DHT22;20808;48.974;8.452;2022-12-26T00:59:59;9.60;99.90
34572;DHT22;20808;48.974;8.452;2022-12-26T01:00:15;9.60;99.90
34572;DHT22;20808;48.974;8.452;2022-12-26T01:00:31;9.60;99.90
34572;DHT22;20808;48.974;8.452;2022-12-26T01:00:48;9.70;99.90
34572;DHT22;20808;48.974;8.452;2022-12-26T01:01:06;9.80;99.90
34572;DHT22;20808;48.974;8.452;2022-12-26T01:01:22;9.90;99.90
34572;DHT22;20808;48.974;8.452;2022-12-26T01:01:38;10.00;49.60
34572;DHT22;20808;48.974;8.452;2022-12-26T01:01:54;10.00;14.30
34572;DHT22;20808;48.974;8.452;2022-12-26T01:02:11;10.10;1.00
34572;DHT22;20808;48.974;8.452;2022-12-26T01:02:41;10.30;1.00
34572;DHT22;20808;48.974;8.452;2022-12-26T01:02:57;10.30;1.00
34572;DHT22;20808;48.974;8.452;2022-12-26T01:03:14;10.40;1.00
34572;DHT22;20808;48.974;8.452;2022-12-26T01:03:30;10.40;1.00
34572;DHT22;20808;48.974;8.452;2022-12-26T01:03:46;10.50;1.00
34572;DHT22;20808;48.974;8.452;2022-12-26T01:04:04;10.50;1.00
34572;DHT22;20808;48.974;8.452;2022-12-26T01:04:19;10.60;1.00
34572;DHT22;20808;48.974;8.452;2022-12-26T01:04:35;10.60;1.00
34572;DHT22;20808;48.974;8.452;2022-12-26T01:04:51;10.70;1.00
34572;DHT22;20808;48.974;8.452;2022-12-26T01:05:08;10.70;1.00
34572;DHT22;20808;48.974;8.452;2022-12-26T01:05:24;10.70;1.00
34572;DHT22;20808;48.974;8.452;2022-12-26T01:05:41;10.80;1.00
34572;DHT22;20808;48.974;8.452;2022-12-26T01:05:57;10.90;99.90
34572;DHT22;20808;48.974;8.452;2022-12-26T01:06:14;10.90;99.90
34572;DHT22;20808;48.974;8.452;2022-12-26T01:06:31;11.00;99.90
34572;DHT22;20808;48.974;8.452;2022-12-26T01:06:47;11.00;70.60
34572;DHT22;20808;48.974;8.452;2022-12-26T01:07:03;11.00;1.00
34572;DHT22;20808;48.974;8.452;2022-12-26T01:07:19;11.10;1.00
34572;DHT22;20808;48.974;8.452;2022-12-26T01:07:35;11.20;1.00
34572;DHT22;20808;48.974;8.452;2022-12-26T01:07:51;11.20;99.90
34572;DHT22;20808;48.974;8.452;2022-12-26T01:08:08;11.20;21.50
34572;DHT22;20808;48.974;8.452;2022-12-26T01:08:24;11.30;1.00
34572;DHT22;20808;48.974;8.452;2022-12-26T01:08:40;11.30;99.90
34572;DHT22;20808;48.974;8.452;2022-12-26T01:08:57;11.30;16.20
34572;DHT22;20808;48.974;8.452;2022-12-26T01:09:20;11.40;1.00
34572;DHT22;20808;48.974;8.452;2022-12-26T01:09:36;11.50;99.90
34572;DHT22;20808;48.974;8.452;2022-12-26T01:09:52;11.50;1.00
34572;DHT22;20808;48.974;8.452;2022-12-26T01:10:11;11.50;1.00
34572;DHT22;20808;48.974;8.452;2022-12-26T01:10:27;11.50;1.00
34572;DHT22;20808;48.974;8.452;2022-12-26T01:10:44;11.60;1.00
34572;DHT22;20808;48.974;8.452;2022-12-26T01:11:05;11.60;1.00
34572;DHT22;20808;48.974;8.452;2022-12-26T01:11:22;11.60;99.90
34572;DHT22;20808;48.974;8.452;2022-12-26T01:11:53;11.60;99.90
34572;DHT22;20808;48.974;8.452;2022-12-26T01:12:09;11.70;1.00
34572;DHT22;20808;48.974;8.452;2022-12-26T01:12:24;11.70;1.00
34572;DHT22;20808;48.974;8.452;2022-12-26T01:12:41;11.80;1.00
34572;DHT22;20808;48.974;8.452;2022-12-26T01:12:57;11.80;1.00
34572;DHT22;20808;48.974;8.452;2022-12-26T01:13:14;11.80;1.00
34572;DHT22;20808;48.974;8.452;2022-12-26T01:13:30;11.80;1.00
34572;DHT22;20808;48.974;8.452;2022-12-26T01:13:46;11.80;1.00
34572;DHT22;20808;48.974;8.452;2022-12-26T01:14:03;11.90;99.90
34572;DHT22;20808;48.974;8.452;2022-12-26T01:14:20;12.00;1.00
34572;DHT22;20808;48.974;8.452;2022-12-26T01:14:35;12.00;1.00
34572;DHT22;20808;48.974;8.452;2022-12-26T01:14:51;12.10;1.00
34572;DHT22;20808;48.974;8.452;2022-12-26T01:15:10;12.10;1.00
34572;DHT22;20808;48.974;8.452;2022-12-26T01:15:26;12.10;99.90
34572;DHT22;20808;48.974;8.452;2022-12-26T01:15:46;12.10;99.90
34572;DHT22;20808;48.974;8.452;2022-12-26T01:16:04;12.10;1.00
34572;DHT22;20808;48.974;8.452;2022-12-26T01:16:20;12.20;99.90
34572;DHT22;20808;48.974;8.452;2022-12-26T01:16:36;12.20;99.90
34572;DHT22;20808;48.974;8.452;2022-12-26T01:16:53;12.20;99.90
34572;DHT22;20808;48.974;8.452;2022-12-26T01:17:09;12.20;31.50
34572;DHT22;20808;48.974;8.452;2022-12-26T01:17:26;12.20;1.00
34572;DHT22;20808;48.974;8.452;2022-12-26T01:17:42;12.20;1.00
34572;DHT22;20808;48.974;8.452;2022-12-26T01:17:59;12.30;1.00
34572;DHT22;20808;48.974;8.452;2022-12-26T01:18:15;12.30;1.00
34572;DHT22;20808;48.974;8.452;2022-12-26T01:18:31;12.40;1.00
34572;DHT22;20808;48.974;8.452;2022-12-26T01:18:48;12.50;1.00
34572;DHT22;20808;48.974;8.452;2022-12-26T01:19:04;12.50;1.00
34572;DHT22;20808;48.974;8.452;2022-12-26T01:19:20;12.50;1.00
34572;DHT22;20808;48.974;8.452;2022-12-26T01:19:36;12.40;1.00
34572;DHT22;20808;48.974;8.452;2022-12-26T01:19:52;12.40;1.00
34572;DHT22;20808;48.974;8.452;2022-12-26T01:20:09;12.40;1.00
34572;DHT22;20808;48.974;8.452;2022-12-26T01:20:24;12.50;1.00
34572;DHT22;20808;48.974;8.452;2022-12-26T01:20:40;12.50;1.00
34572;DHT22;20808;48.974;8.452;2022-12-26T01:20:59;12.50;1.00
34572;DHT22;20808;48.974;8.452;2022-12-26T01:21:15;12.50;1.00
34572;DHT22;20808;48.974;8.452;2022-12-26T01:21:31;12.50;1.00
34572;DHT22;20808;48.974;8.452;2022-12-26T01:21:47;12.50;1.00
34572;DHT22;20808;48.974;8.452;2022-12-26T01:22:03;12.50;1.00
34572;DHT22;20808;48.974;8.452;2022-12-26T01:22:19;12.50;1.00
34572;DHT22;20808;48.974;8.452;2022-12-26T01:22:36;12.50;1.00
34572;DHT22;20808;48.974;8.452;2022-12-26T01:22:53;12.50;1.00
34572;DHT22;20808;48.974;8.452;2022-12-26T01:23:08;12.50;1.00
34572;DHT22;20808;48.974;8.452;2022-12-26T01:23:24;12.50;1.00
34572;DHT22;20808;48.974;8.452;2022-12-26T01:23:40;12.50;1.00
34572;DHT22;20808;48.974;8.452;2022-12-26T01:23:57;12.50;99.90
34572;DHT22;20808;48.974;8.452;2022-12-26T01:24:14;12.50;1.00
34572;DHT22;20808;48.974;8.452;2022-12-26T01:24:30;12.50;1.00
34572;DHT22;20808;48.974;8.452;2022-12-26T01:24:46;12.50;1.00
34572;DHT22;20808;48.974;8.452;2022-12-26T01:25:02;12.50;1.00
34572;DHT22;20808;48.974;8.452;2022-12-26T01:25:18;12.40;1.00
34572;DHT22;20808;48.974;8.452;2022-12-26T01:25:34;12.40;1.00
34572;DHT22;20808;48.974;8.452;2022-12-26T01:25:50;12.50;99.90
34572;DHT22;20808;48.974;8.452;2022-12-26T01:26:07;12.50;99.90
34572;DHT22;20808;48.974;8.452;2022-12-26T01:26:23;12.50;99.90
34572;DHT22;20808;48.974;8.452;2022-12-26T01:26:39;12.50;99.90
34572;DHT22;20808;48.974;8.452;2022-12-26T01:26:55;12.50;99.90
34572;DHT22;20808;48.974;8.452;2022-12-26T01:27:11;12.50;1.00
34572;DHT22;20808;48.974;8.452;2022-12-26T01:27:27;12.50;1.00
34572;DHT22;20808;48.974;8.452;2022-12-26T01:27:43;12.50;99.90
34572;DHT22;20808;48.974;8.452;2022-12-26T01:27:59;12.50;1.00
34572;DHT22;20808;48.974;8.452;2022-12-26T01:28:15;12.50;1.00
34572;DHT22;20808;48.974;8.452;2022-12-26T01:28:31;12.50;1.00
34572;DHT22;20808;48.974;8.452;2022-12-26T01:28:47;12.50;1.00
34572;DHT22;20808;48.974;8.452;2022-12-26T01:29:04;12.40;1.00
34572;DHT22;20808;48.974;8.452;2022-12-26T01:29:20;12.40;1.00
34572;DHT22;20808;48.974;8.452;2022-12-26T01:29:36;12.40;1.00
34572;DHT22;20808;48.974;8.452;2022-12-26T01:29:52;12.40;1.00
34572;DHT22;20808;48.974;8.452;2022-12-26T01:30:09;12.40;1.00
34572;DHT22;20808;48.974;8.452;2022-12-26T01:30:25;12.40;1.00
34572;DHT22;20808;48.974;8.452;2022-12-26T01:30:41;12.40;1.00
34572;DHT22;20808;48.974;8.452;2022-12-26T01:31:00;12.40;1.00
34572;DHT22;20808;48.974;8.452;2022-12-26T01:31:17;12.40;1.00
34572;DHT22;20808;48.974;8.452;2022-12-26T01:31:33;12.50;99.90
34572;DHT22;20808;48.974;8.452;2022-12-26T01:31:49;12.40;99.90
34572;DHT22;20808;48.974;8.452;2022-12-26T01:32:05;12.40;99.90
34572;DHT22;20808;48.974;8.452;2022-12-26T01:32:21;12.40;1.00
34572;DHT22;20808;48.974;8.452;2022-12-26T01:32:38;12.40;1.00
34572;DHT22;20808;48.974;8.452;2022-12-26T01:32:54;12.40;1.00
34572;DHT22;20808;48.974;8.452;2022-12-26T01:33:10;12.40;1.00
34572;DHT22;20808;48.974;8.452;2022-12-26T01:33:26;12.40;1.00
34572;DHT22;20808;48.974;8.452;2022-12-26T01:33:42;12.40;1.00
34572;DHT22;20808;48.974;8.452;2022-12-26T01:33:57;12.30;1.00
34572;DHT22;20808;48.974;8.452;2022-12-26T01:34:14;12.30;1.00
34572;DHT22;20808;48.974;8.452;2022-12-26T01:34:30;12.30;1.00
34572;DHT22;20808;48.974;8.452;2022-12-26T01:34:46;12.30;1.00
34572;DHT22;20808;48.974;8.452;2022-12-26T01:35:02;12.30;1.00
34572;DHT22;20808;48.974;8.452;2022-12-26T01:35:18;12.30;1.00
34572;DHT22;20808;48.974;8.452;2022-12-26T01:35:34;12.30;1.00
34572;DHT22;20808;48.974;8.452;2022-12-26T01:35:52;12.30;1.00
34572;DHT22;20808;48.974;8.452;2022-12-26T01:36:08;12.30;1.00
34572;DHT22;20808;48.974;8.452;2022-12-26T01:36:24;12.30;1.00
34572;DHT22;20808;48.974;8.452;2022-12-26T01:36:40;12.30;1.00
34572;DHT22;20808;48.974;8.452;2022-12-26T01:36:55;12.30;1.00
34572;DHT22;20808;48.974;8.452;2022-12-26T01:37:12;12.30;1.00
34572;DHT22;20808;48.974;8.452;2022-12-26T01:37:28;12.30;1.00
34572;DHT22;20808;48.974;8.452;2022-12-26T01:37:44;12.30;1.00
34572;DHT22;20808;48.974;8.452;2022-12-26T01:38:00;12.30;1.00
34572;DHT22;20808;48.974;8.452;2022-12-26T01:38:16;12.30;1.00
34572;DHT22;20808;48.974;8.452;2022-12-26T01:38:32;12.40;1.00
34572;DHT22;20808;48.974;8.452;2022-12-26T01:38:48;12.40;1.00
34572;DHT22;20808;48.974;8.452;2022-12-26T01:39:06;12.40;1.00
34572;DHT22;20808;48.974;8.452;2022-12-26T01:39:22;12.40;99.90
34572;DHT22;20808;48.974;8.452;2022-12-26T01:39:38;12.40;99.90
34572;DHT22;20808;48.974;8.452;2022-12-26T01:39:54;12.40;99.90
34572;DHT22;20808;48.974;8.452;2022-12-26T01:40:11;12.50;99.90
34572;DHT22;20808;48.974;8.452;2022-12-26T01:40:28;12.50;99.90
34572;DHT22;20808;48.974;8.452;2022-12-26T01:40:44;12.50;99.90
34572;DHT22;20808;48.974;8.452;2022-12-26T01:41:00;12.50;99.90
34572;DHT22;20808;48.974;8.452;2022-12-26T01:41:31;12.50;99.90
34572;DHT22;20808;48.974;8.452;2022-12-26T01:41:47;12.50;99.90
34572;DHT22;20808;48.974;8.452;2022-12-26T01:42:10;12.50;99.90
34572;DHT22;20808;48.974;8.452;2022-12-26T01:42:35;12.60;99.90
34572;DHT22;20808;48.974;8.452;2022-12-26T01:42:51;12.60;99.90
34572;DHT22;20808;48.974;8.452;2022-12-26T01:43:10;12.60;96.90
34572;DHT22;20808;48.974;8.452;2022-12-26T01:43:44;12.70;53.90
34572;DHT22;20808;48.974;8.452;2022-12-26T01:44:03;12.70;18.90
34572;DHT22;20808;48.974;8.452;2022-12-26T01:44:53;12.70;25.10
34572;DHT22;20808;48.974;8.452;2022-12-26T01:45:21;12.70;1.00
34572;DHT22;20808;48.974;8.452;2022-12-26T01:45:38;12.70;1.00
34572;DHT22;20808;48.974;8.452;2022-12-26T01:45:55;12.70;1.00
34572;DHT22;20808;48.974;8.452;2022-12-26T01:46:11;12.70;1.00
34572;DHT22;20808;48.974;8.452;2022-12-26T01:46:30;12.70;1.00
34572;DHT22;20808;48.974;8.452;2022-12-26T01:46:47;12.70;1.00
34572;DHT22;20808;48.974;8.452;2022-12-26T01:47:02;12.70;1.00